sensor_id;sensor_type;location;lat;lon;timestamp;temperature;humidity
19898;DHT22;10111;50.814;4.572;2022-10-28T00:02:11;17.30;99.90
19898;DHT22;10111;50.814;4.572;2022-10-28T00:04:37;17.30;99.90
19898;DHT22;10111;50.814;4.572;2022-10-28T00:07:02;17.30;99.90
19898;DHT22;10111;50.814;4.572;2022-10-28T00:09:28;17.20;99.90
19898;DHT22;10111;50.814;4.572;2022-10-28T00:11:54;17.10;99.90
19898;DHT22;10111;50.814;4.572;2022-10-28T00:14:20;17.00;99.90
19898;DHT22;10111;50.814;4.572;2022-10-28T00:16:45;16.90;99.90
19898;DHT22;10111;50.814;4.572;2022-10-28T00:19:11;16.90;99.90
19898;DHT22;10111;50.814;4.572;2022-10-28T00:21:38;16.80;99.90
19898;DHT22;10111;50.814;4.572;2022-10-28T00:24:06;16.80;99.90
19898;DHT22;10111;50.814;4.572;2022-10-28T00:26:33;16.70;99.90
19898;DHT22;10111;50.814;4.572;2022-10-28T00:29:06;16.70;99.90
19898;DHT22;10111;50.814;4.572;2022-10-28T00:31:34;16.70;99.90
19898;DHT22;10111;50.814;4.572;2022-10-28T00:34:02;16.60;99.90
19898;DHT22;10111;50.814;4.572;2022-10-28T00:36:30;16.60;99.90
19898;DHT22;10111;50.814;4.572;2022-10-28T00:38:57;16.60;99.90
19898;DHT22;10111;50.814;4.572;2022-10-28T00:43:56;16.50;99.90
19898;DHT22;10111;50.814;4.572;2022-10-28T00:52:08;16.50;99.90
19898;DHT22;10111;50.814;4.572;2022-10-28T00:54:35;16.50;99.90
19898;DHT22;10111;50.814;4.572;2022-10-28T00:57:03;16.40;99.90
19898;DHT22;10111;50.814;4.572;2022-10-28T00:59:35;16.40;99.90
19898;DHT22;10111;50.814;4.572;2022-10-28T01:02:01;16.40;99.90
19898;DHT22;10111;50.814;4.572;2022-10-28T01:04:27;16.40;99.90
19898;DHT22;10111;50.814;4.572;2022-10-28T01:06:53;16.30;99.90
19898;DHT22;10111;50.814;4.572;2022-10-28T01:09:19;16.30;99.90
19898;DHT22;10111;50.814;4.572;2022-10-28T01:31:24;16.20;99.90
19898;DHT22;10111;50.814;4.572;2022-10-28T01:39:31;16.20;99.90
19898;DHT22;10111;50.814;4.572;2022-10-28T01:45:14;16.10;99.90
19898;DHT22;10111;50.814;4.572;2022-10-28T01:47:49;16.00;99.90
19898;DHT22;10111;50.814;4.572;2022-10-28T01:50:24;16.00;99.90
19898;DHT22;10111;50.814;4.572;2022-10-28T01:52:53;16.00;99.90
19898;DHT22;10111;50.814;4.572;2022-10-28T01:55:34;16.00;99.90
19898;DHT22;10111;50.814;4.572;2022-10-28T01:58:01;16.00;99.90
19898;DHT22;10111;50.814;4.572;2022-10-28T02:00:30;16.00;99.90
19898;DHT22;10111;50.814;4.572;2022-10-28T02:02:56;15.90;99.90
19898;DHT22;10111;50.814;4.572;2022-10-28T02:11:10;15.90;99.90
19898;DHT22;10111;50.814;4.572;2022-10-28T02:13:50;15.90;99.90
19898;DHT22;10111;50.814;4.572;2022-10-28T02:24:31;15.80;99.90
19898;DHT22;10111;50.814;4.572;2022-10-28T02:27:17;15.70;99.90
19898;DHT22;10111;50.814;4.572;2022-10-28T02:30:01;15.70;99.90
19898;DHT22;10111;50.814;4.572;2022-10-28T02:32:31;15.70;99.90
19898;DHT22;10111;50.814;4.572;2022-10-28T02:34:59;15.60;99.90
19898;DHT22;10111;50.814;4.572;2022-10-28T02:37:31;15.60;99.90
19898;DHT22;10111;50.814;4.572;2022-10-28T02:40:01;15.60;99.90
19898;DHT22;10111;50.814;4.572;2022-10-28T02:42:32;15.60;99.90
19898;DHT22;10111;50.814;4.572;2022-10-28T02:45:06;15.60;99.90
19898;DHT22;10111;50.814;4.572;2022-10-28T02:47:38;15.60;99.90
19898;DHT22;10111;50.814;4.572;2022-10-28T02:50:09;15.50;99.90
19898;DHT22;10111;50.814;4.572;2022-10-28T02:52:39;15.50;99.90
19898;DHT22;10111;50.814;4.572;2022-10-28T02:55:07;15.50;99.90
19898;DHT22;10111;50.814;4.572;2022-10-28T02:57:35;15.40;99.90
19898;DHT22;10111;50.814;4.572;2022-10-28T03:00:17;15.40;99.90
19898;DHT22;10111;50.814;4.572;2022-10-28T03:02:42;15.30;99.90
19898;DHT22;10111;50.814;4.572;2022-10-28T03:05:08;15.30;99.90
19898;DHT22;10111;50.814;4.572;2022-10-28T03:07:34;15.30;99.90
19898;DHT22;10111;50.814;4.572;2022-10-28T03:10:00;15.40;99.90
19898;DHT22;10111;50.814;4.572;2022-10-28T03:12:26;15.40;99.90
19898;DHT22;10111;50.814;4.572;2022-10-28T03:14:51;15.40;99.90
19898;DHT22;10111;50.814;4.572;2022-10-28T03:17:17;15.40;99.90
19898;DHT22;10111;50.814;4.572;2022-10-28T03:19:42;15.40;99.90
19898;DHT22;10111;50.814;4.572;2022-10-28T03:22:08;15.50;99.90
19898;DHT22;10111;50.814;4.572;2022-10-28T03:24:34;15.50;99.90
19898;DHT22;10111;50.814;4.572;2022-10-28T03:26:59;15.50;99.90
19898;DHT22;10111;50.814;4.572;2022-10-28T03:29:25;15.60;99.90
19898;DHT22;10111;50.814;4.572;2022-10-28T03:31:50;15.60;99.90
19898;DHT22;10111;50.814;4.572;2022-10-28T03:34:16;15.60;99.90
19898;DHT22;10111;50.814;4.572;2022-10-28T03:36:42;15.80;99.90
19898;DHT22;10111;50.814;4.572;2022-10-28T03:39:07;15.70;99.90
19898;DHT22;10111;50.814;4.572;2022-10-28T03:41:33;15.70;99.90
19898;DHT22;10111;50.814;4.572;2022-10-28T03:43:59;15.90;99.90
19898;DHT22;10111;50.814;4.572;2022-10-28T03:46:24;15.80;99.90
19898;DHT22;10111;50.814;4.572;2022-10-28T03:48:50;15.80;99.90
19898;DHT22;10111;50.814;4.572;2022-10-28T03:51:16;15.80;99.90
19898;DHT22;10111;50.814;4.572;2022-10-28T03:53:41;15.70;99.90
19898;DHT22;10111;50.814;4.572;2022-10-28T03:56:07;15.90;99.90
19898;DHT22;10111;50.814;4.572;2022-10-28T03:58:33;15.70;99.90
19898;DHT22;10111;50.814;4.572;2022-10-28T04:00:58;15.70;99.90
19898;DHT22;10111;50.814;4.572;2022-10-28T04:03:24;15.70;99.90
19898;DHT22;10111;50.814;4.572;2022-10-28T04:05:50;15.80;99.90
19898;DHT22;10111;50.814;4.572;2022-10-28T04:08:16;15.80;99.90
19898;DHT22;10111;50.814;4.572;2022-10-28T04:10:43;15.80;99.90
19898;DHT22;10111;50.814;4.572;2022-10-28T04:13:09;15.90;99.90
19898;DHT22;10111;50.814;4.572;2022-10-28T04:15:35;15.90;99.90
19898;DHT22;10111;50.814;4.572;2022-10-28T04:18:01;15.90;99.90
19898;DHT22;10111;50.814;4.572;2022-10-28T04:20:27;15.90;99.90
19898;DHT22;10111;50.814;4.572;2022-10-28T04:22:53;15.90;99.90
19898;DHT22;10111;50.814;4.572;2022-10-28T04:25:23;15.90;99.90
19898;DHT22;10111;50.814;4.572;2022-10-28T04:27:48;16.00;99.90
19898;DHT22;10111;50.814;4.572;2022-10-28T04:30:14;16.00;99.90
19898;DHT22;10111;50.814;4.572;2022-10-28T04:32:41;16.00;99.90
19898;DHT22;10111;50.814;4.572;2022-10-28T04:35:08;16.00;99.90
19898;DHT22;10111;50.814;4.572;2022-10-28T04:37:34;16.00;99.90
19898;DHT22;10111;50.814;4.572;2022-10-28T04:40:00;16.10;99.90
19898;DHT22;10111;50.814;4.572;2022-10-28T04:42:26;16.10;99.90
19898;DHT22;10111;50.814;4.572;2022-10-28T04:44:51;16.10;99.90
19898;DHT22;10111;50.814;4.572;2022-10-28T04:47:17;16.10;99.90
19898;DHT22;10111;50.814;4.572;2022-10-28T04:49:43;16.10;99.90
19898;DHT22;10111;50.814;4.572;2022-10-28T04:52:09;16.10;99.90
19898;DHT22;10111;50.814;4.572;2022-10-28T04:54:35;16.10;99.90
19898;DHT22;10111;50.814;4.572;2022-10-28T04:57:00;16.10;99.90
19898;DHT22;10111;50.814;4.572;2022-10-28T04:59:26;16.10;99.90
19898;DHT22;10111;50.814;4.572;2022-10-28T05:01:52;16.10;99.90
19898;DHT22;10111;50.814;4.572;2022-10-28T05:04:17;16.10;99.90
19898;DHT22;10111;50.814;4.572;2022-10-28T05:06:43;16.10;99.90
19898;DHT22;10111;50.814;4.572;2022-10-28T05:09:09;16.20;99.90
19898;DHT22;10111;50.814;4.572;2022-10-28T05:11:34;16.20;99.90
19898;DHT22;10111;50.814;4.572;2022-10-28T05:14:00;16.10;99.90
19898;DHT22;10111;50.814;4.572;2022-10-28T05:16:25;16.20;99.90
19898;DHT22;10111;50.814;4.572;2022-10-28T05:18:51;16.10;99.90
19898;DHT22;10111;50.814;4.572;2022-10-28T05:21:17;16.10;99.90
19898;DHT22;10111;50.814;4.572;2022-10-28T05:23:42;16.00;99.90
19898;DHT22;10111;50.814;4.572;2022-10-28T05:26:08;16.00;99.90
19898;DHT22;10111;50.814;4.572;2022-10-28T05:28:33;16.00;99.90
19898;DHT22;10111;50.814;4.572;2022-10-28T05:30:59;16.00;99.90
19898;DHT22;10111;50.814;4.572;2022-10-28T05:33:25;16.00;99.90
19898;DHT22;10111;50.814;4.572;2022-10-28T05:35:50;15.90;99.90
19898;DHT22;10111;50.814;4.572;2022-10-28T05:38:17;15.90;99.90
19898;DHT22;10111;50.814;4.572;2022-10-28T05:40:42;15.90;99.90
19898;DHT22;10111;50.814;4.572;2022-10-28T05:43:09;15.90;99.90
19898;DHT22;10111;50.814;4.572;2022-10-28T05:45:35;15.90;99.90
19898;DHT22;10111;50.814;4.572;2022-10-28T05:48:00;15.80;99.90
19898;DHT22;10111;50.814;4.572;2022-10-28T05:50:26;16.00;99.90
19898;DHT22;10111;50.814;4.572;2022-10-28T05:52:55;15.80;99.90
19898;DHT22;10111;50.814;4.572;2022-10-28T05:55:24;15.80;99.90
19898;DHT22;10111;50.814;4.572;2022-10-28T05:57:52;15.80;99.90
19898;DHT22;10111;50.814;4.572;2022-10-28T06:00:19;15.80;99.90
19898;DHT22;10111;50.814;4.572;2022-10-28T06:02:45;15.80;99.90
19898;DHT22;10111;50.814;4.572;2022-10-28T06:05:12;15.80;99.90
19898;DHT22;10111;50.814;4.572;2022-10-28T06:07:38;15.80;99.90
19898;DHT22;10111;50.814;4.572;2022-10-28T06:10:06;15.70;99.90
19898;DHT22;10111;50.814;4.572;2022-10-28T06:12:32;15.70;99.90
19898;DHT22;10111;50.814;4.572;2022-10-28T06:14:58;15.80;99.90
19898;DHT22;10111;50.814;4.572;2022-10-28T06:17:24;15.80;99.90
19898;DHT22;10111;50.814;4.572;2022-10-28T06:19:49;15.80;99.90
19898;DHT22;10111;50.814;4.572;2022-10-28T06:22:15;15.90;99.90
19898;DHT22;10111;50.814;4.572;2022-10-28T06:24:41;15.80;99.90
19898;DHT22;10111;50.814;4.572;2022-10-28T06:27:06;15.90;99.90
19898;DHT22;10111;50.814;4.572;2022-10-28T06:29:33;15.90;99.90
19898;DHT22;10111;50.814;4.572;2022-10-28T06:31:59;15.90;99.90
19898;DHT22;10111;50.814;4.572;2022-10-28T06:34:25;15.90;99.90
19898;DHT22;10111;50.814;4.572;2022-10-28T06:36:50;15.90;99.90
19898;DHT22;10111;50.814;4.572;2022-10-28T06:39:16;16.00;99.90
19898;DHT22;10111;50.814;4.572;2022-10-28T06:41:42;16.10;99.90
19898;DHT22;10111;50.814;4.572;2022-10-28T06:44:08;16.10;99.90
19898;DHT22;10111;50.814;4.572;2022-10-28T06:46:33;16.10;99.90
19898;DHT22;10111;50.814;4.572;2022-10-28T06:48:59;16.20;99.90
19898;DHT22;10111;50.814;4.572;2022-10-28T06:51:28;16.20;99.90
19898;DHT22;10111;50.814;4.572;2022-10-28T06:53:54;16.20;99.90
19898;DHT22;10111;50.814;4.572;2022-10-28T06:56:20;16.20;99.90
19898;DHT22;10111;50.814;4.572;2022-10-28T06:58:53;16.20;99.90
19898;DHT22;10111;50.814;4.572;2022-10-28T07:01:19;16.30;99.90
19898;DHT22;10111;50.814;4.572;2022-10-28T07:03:46;16.30;99.90
19898;DHT22;10111;50.814;4.572;2022-10-28T07:06:12;16.30;99.90
19898;DHT22;10111;50.814;4.572;2022-10-28T07:08:37;16.40;99.90
19898;DHT22;10111;50.814;4.572;2022-10-28T07:11:03;16.40;99.90
19898;DHT22;10111;50.814;4.572;2022-10-28T07:13:29;16.40;99.90
19898;DHT22;10111;50.814;4.572;2022-10-28T07:15:59;16.50;99.90
19898;DHT22;10111;50.814;4.572;2022-10-28T07:18:27;16.50;99.90
19898;DHT22;10111;50.814;4.572;2022-10-28T07:20:53;16.60;99.90
19898;DHT22;10111;50.814;4.572;2022-10-28T07:23:18;16.60;99.90
19898;DHT22;10111;50.814;4.572;2022-10-28T07:25:54;16.80;99.90
19898;DHT22;10111;50.814;4.572;2022-10-28T07:28:21;16.70;99.90
19898;DHT22;10111;50.814;4.572;2022-10-28T07:30:47;16.70;99.90
19898;DHT22;10111;50.814;4.572;2022-10-28T07:33:12;16.80;99.90
19898;DHT22;10111;50.814;4.572;2022-10-28T07:35:38;16.90;99.90
19898;DHT22;10111;50.814;4.572;2022-10-28T07:38:04;16.90;99.90
19898;DHT22;10111;50.814;4.572;2022-10-28T07:40:30;17.00;99.90
19898;DHT22;10111;50.814;4.572;2022-10-28T07:42:57;17.10;99.90
19898;DHT22;10111;50.814;4.572;2022-10-28T07:45:23;17.20;99.90
19898;DHT22;10111;50.814;4.572;2022-10-28T07:47:48;17.30;99.90
19898;DHT22;10111;50.814;4.572;2022-10-28T07:50:14;17.40;99.90
19898;DHT22;10111;50.814;4.572;2022-10-28T07:52:40;17.60;99.90
19898;DHT22;10111;50.814;4.572;2022-10-28T07:55:06;17.50;99.90
19898;DHT22;10111;50.814;4.572;2022-10-28T07:57:35;17.60;99.90
19898;DHT22;10111;50.814;4.572;2022-10-28T08:00:02;17.60;99.90
19898;DHT22;10111;50.814;4.572;2022-10-28T08:02:28;17.70;99.90
19898;DHT22;10111;50.814;4.572;2022-10-28T08:04:54;17.80;99.90
19898;DHT22;10111;50.814;4.572;2022-10-28T08:07:21;17.90;99.90
19898;DHT22;10111;50.814;4.572;2022-10-28T08:09:46;18.00;99.90
19898;DHT22;10111;50.814;4.572;2022-10-28T08:12:13;18.00;99.90
19898;DHT22;10111;50.814;4.572;2022-10-28T08:14:39;18.00;99.90
19898;DHT22;10111;50.814;4.572;2022-10-28T08:17:05;18.10;99.90
19898;DHT22;10111;50.814;4.572;2022-10-28T08:19:30;18.20;99.90
19898;DHT22;10111;50.814;4.572;2022-10-28T08:21:56;18.30;99.90
19898;DHT22;10111;50.814;4.572;2022-10-28T08:24:22;18.30;99.90
19898;DHT22;10111;50.814;4.572;2022-10-28T08:26:48;18.40;99.90
19898;DHT22;10111;50.814;4.572;2022-10-28T08:29:14;18.50;99.90
19898;DHT22;10111;50.814;4.572;2022-10-28T08:31:40;18.50;99.90
19898;DHT22;10111;50.814;4.572;2022-10-28T08:34:05;18.50;99.90
19898;DHT22;10111;50.814;4.572;2022-10-28T08:36:31;18.50;99.90
19898;DHT22;10111;50.814;4.572;2022-10-28T08:38:57;18.40;99.90
19898;DHT22;10111;50.814;4.572;2022-10-28T08:41:58;18.50;99.90
19898;DHT22;10111;50.814;4.572;2022-10-28T08:45:07;18.60;99.90
19898;DHT22;10111;50.814;4.572;2022-10-28T08:50:12;18.70;99.90
19898;DHT22;10111;50.814;4.572;2022-10-28T08:53:18;18.70;99.90
19898;DHT22;10111;50.814;4.572;2022-10-28T08:55:46;18.80;99.90
19898;DHT22;10111;50.814;4.572;2022-10-28T08:58:29;18.80;99.90
19898;DHT22;10111;50.814;4.572;2022-10-28T09:00:59;18.80;99.90
19898;DHT22;10111;50.814;4.572;2022-10-28T09:03:26;18.70;99.90
19898;DHT22;10111;50.814;4.572;2022-10-28T09:05:59;18.70;99.90
19898;DHT22;10111;50.814;4.572;2022-10-28T09:08:28;18.70;99.90
19898;DHT22;10111;50.814;4.572;2022-10-28T09:16:43;18.90;99.90
19898;DHT22;10111;50.814;4.572;2022-10-28T09:27:37;19.40;99.90
19898;DHT22;10111;50.814;4.572;2022-10-28T09:30:26;19.40;99.90
19898;DHT22;10111;50.814;4.572;2022-10-28T09:33:08;19.40;99.90
19898;DHT22;10111;50.814;4.572;2022-10-28T09:35:40;19.50;99.90
19898;DHT22;10111;50.814;4.572;2022-10-28T09:40:51;19.80;99.90
19898;DHT22;10111;50.814;4.572;2022-10-28T09:43:26;19.80;99.90
19898;DHT22;10111;50.814;4.572;2022-10-28T09:45:57;19.80;99.90
19898;DHT22;10111;50.814;4.572;2022-10-28T09:48:31;19.80;99.90
19898;DHT22;10111;50.814;4.572;2022-10-28T09:50:59;19.80;99.90
19898;DHT22;10111;50.814;4.572;2022-10-28T09:56:13;19.80;99.90
19898;DHT22;10111;50.814;4.572;2022-10-28T09:58:45;19.80;99.90
19898;DHT22;10111;50.814;4.572;2022-10-28T10:01:12;19.80;99.90
19898;DHT22;10111;50.814;4.572;2022-10-28T10:03:38;19.90;99.90
19898;DHT22;10111;50.814;4.572;2022-10-28T10:06:12;19.90;99.90
19898;DHT22;10111;50.814;4.572;2022-10-28T10:08:39;20.00;99.90
19898;DHT22;10111;50.814;4.572;2022-10-28T10:11:18;20.00;99.90
19898;DHT22;10111;50.814;4.572;2022-10-28T10:13:46;20.10;99.90
19898;DHT22;10111;50.814;4.572;2022-10-28T10:18:53;20.20;99.90
19898;DHT22;10111;50.814;4.572;2022-10-28T10:21:48;20.30;99.90
19898;DHT22;10111;50.814;4.572;2022-10-28T10:24:33;20.40;99.90
19898;DHT22;10111;50.814;4.572;2022-10-28T10:27:19;20.40;99.90
19898;DHT22;10111;50.814;4.572;2022-10-28T10:29:48;20.60;99.90
19898;DHT22;10111;50.814;4.572;2022-10-28T10:32:24;20.70;99.90
19898;DHT22;10111;50.814;4.572;2022-10-28T10:34:57;21.00;99.90
19898;DHT22;10111;50.814;4.572;2022-10-28T10:37:24;21.20;99.90
19898;DHT22;10111;50.814;4.572;2022-10-28T10:40:17;21.30;99.90
19898;DHT22;10111;50.814;4.572;2022-10-28T10:42:44;21.30;99.90
19898;DHT22;10111;50.814;4.572;2022-10-28T10:47:38;21.40;99.90
19898;DHT22;10111;50.814;4.572;2022-10-28T10:52:47;21.60;99.90
19898;DHT22;10111;50.814;4.572;2022-10-28T10:55:40;21.80;99.90
19898;DHT22;10111;50.814;4.572;2022-10-28T10:58:18;21.80;99.90
19898;DHT22;10111;50.814;4.572;2022-10-28T11:00:52;21.80;99.90
19898;DHT22;10111;50.814;4.572;2022-10-28T11:03:37;21.70;99.90
19898;DHT22;10111;50.814;4.572;2022-10-28T11:06:06;21.70;99.90
19898;DHT22;10111;50.814;4.572;2022-10-28T11:08:39;21.90;99.90
19898;DHT22;10111;50.814;4.572;2022-10-28T11:13:34;22.20;99.90
19898;DHT22;10111;50.814;4.572;2022-10-28T11:16:01;22.30;99.90
19898;DHT22;10111;50.814;4.572;2022-10-28T11:18:27;22.40;99.90
19898;DHT22;10111;50.814;4.572;2022-10-28T11:26:38;22.60;99.90
19898;DHT22;10111;50.814;4.572;2022-10-28T11:29:13;22.80;99.90
19898;DHT22;10111;50.814;4.572;2022-10-28T11:34:41;22.70;99.90
19898;DHT22;10111;50.814;4.572;2022-10-28T11:37:51;22.80;99.90
19898;DHT22;10111;50.814;4.572;2022-10-28T11:43:17;22.80;99.90
19898;DHT22;10111;50.814;4.572;2022-10-28T11:56:16;22.70;99.90
19898;DHT22;10111;50.814;4.572;2022-10-28T11:58:59;22.80;99.90
19898;DHT22;10111;50.814;4.572;2022-10-28T12:13:51;22.80;99.90
19898;DHT22;10111;50.814;4.572;2022-10-28T12:19:23;22.90;99.90
19898;DHT22;10111;50.814;4.572;2022-10-28T12:24:34;23.00;99.90
19898;DHT22;10111;50.814;4.572;2022-10-28T12:27:13;22.90;99.90
19898;DHT22;10111;50.814;4.572;2022-10-28T12:29:43;22.90;99.90
19898;DHT22;10111;50.814;4.572;2022-10-28T12:32:13;22.80;99.90
19898;DHT22;10111;50.814;4.572;2022-10-28T12:35:20;22.70;99.90
19898;DHT22;10111;50.814;4.572;2022-10-28T12:38:10;22.70;99.90
19898;DHT22;10111;50.814;4.572;2022-10-28T12:40:47;22.70;99.90
19898;DHT22;10111;50.814;4.572;2022-10-28T12:43:42;22.70;99.90
19898;DHT22;10111;50.814;4.572;2022-10-28T12:49:15;22.70;99.90
19898;DHT22;10111;50.814;4.572;2022-10-28T12:51:43;22.60;99.90
19898;DHT22;10111;50.814;4.572;2022-10-28T12:54:29;22.60;99.90
19898;DHT22;10111;50.814;4.572;2022-10-28T12:57:11;22.70;99.90
19898;DHT22;10111;50.814;4.572;2022-10-28T12:59:49;22.70;99.90
19898;DHT22;10111;50.814;4.572;2022-10-28T13:02:21;22.80;99.90
19898;DHT22;10111;50.814;4.572;2022-10-28T13:04:49;22.90;99.90
19898;DHT22;10111;50.814;4.572;2022-10-28T13:07:42;23.00;99.90
19898;DHT22;10111;50.814;4.572;2022-10-28T13:23:37;22.70;99.90
19898;DHT22;10111;50.814;4.572;2022-10-28T13:26:16;22.70;99.90
19898;DHT22;10111;50.814;4.572;2022-10-28T13:28:47;22.60;99.90
19898;DHT22;10111;50.814;4.572;2022-10-28T13:31:14;22.70;99.90
19898;DHT22;10111;50.814;4.572;2022-10-28T13:33:49;22.70;99.90
19898;DHT22;10111;50.814;4.572;2022-10-28T13:36:18;22.70;99.90
19898;DHT22;10111;50.814;4.572;2022-10-28T13:38:59;22.80;99.90
19898;DHT22;10111;50.814;4.572;2022-10-28T13:41:35;22.80;99.90
19898;DHT22;10111;50.814;4.572;2022-10-28T13:44:20;22.80;99.90
19898;DHT22;10111;50.814;4.572;2022-10-28T13:52:02;22.50;99.90
19898;DHT22;10111;50.814;4.572;2022-10-28T13:59:54;22.50;99.90
19898;DHT22;10111;50.814;4.572;2022-10-28T14:02:25;22.70;99.90
19898;DHT22;10111;50.814;4.572;2022-10-28T14:05:00;22.70;99.90
19898;DHT22;10111;50.814;4.572;2022-10-28T14:07:29;22.70;99.90
19898;DHT22;10111;50.814;4.572;2022-10-28T14:10:13;22.70;99.90
19898;DHT22;10111;50.814;4.572;2022-10-28T14:12:43;22.60;99.90
19898;DHT22;10111;50.814;4.572;2022-10-28T14:17:52;22.60;99.90
19898;DHT22;10111;50.814;4.572;2022-10-28T14:22:54;22.80;99.90
19898;DHT22;10111;50.814;4.572;2022-10-28T14:50:05;22.20;99.90
19898;DHT22;10111;50.814;4.572;2022-10-28T14:52:35;22.10;99.90
19898;DHT22;10111;50.814;4.572;2022-10-28T14:55:04;22.10;99.90
19898;DHT22;10111;50.814;4.572;2022-10-28T14:57:32;22.00;99.90
19898;DHT22;10111;50.814;4.572;2022-10-28T15:00:04;22.00;99.90
19898;DHT22;10111;50.814;4.572;2022-10-28T15:02:32;21.90;99.90
19898;DHT22;10111;50.814;4.572;2022-10-28T15:05:01;22.00;99.90
19898;DHT22;10111;50.814;4.572;2022-10-28T15:07:29;22.00;99.90
19898;DHT22;10111;50.814;4.572;2022-10-28T15:09:56;22.00;99.90
19898;DHT22;10111;50.814;4.572;2022-10-28T15:12:23;22.00;99.90
19898;DHT22;10111;50.814;4.572;2022-10-28T15:14:55;21.80;99.90
19898;DHT22;10111;50.814;4.572;2022-10-28T15:17:31;21.70;99.90
19898;DHT22;10111;50.814;4.572;2022-10-28T15:22:42;21.50;99.90
19898;DHT22;10111;50.814;4.572;2022-10-28T15:25:13;21.50;99.90
19898;DHT22;10111;50.814;4.572;2022-10-28T15:27:41;21.50;99.90
19898;DHT22;10111;50.814;4.572;2022-10-28T15:30:24;21.40;99.90
19898;DHT22;10111;50.814;4.572;2022-10-28T15:32:53;21.40;99.90
19898;DHT22;10111;50.814;4.572;2022-10-28T15:37:52;21.40;99.90
19898;DHT22;10111;50.814;4.572;2022-10-28T15:40:30;21.30;99.90
19898;DHT22;10111;50.814;4.572;2022-10-28T15:43:06;21.20;99.90
19898;DHT22;10111;50.814;4.572;2022-10-28T15:45:41;21.20;99.90
19898;DHT22;10111;50.814;4.572;2022-10-28T15:48:11;21.10;99.90
19898;DHT22;10111;50.814;4.572;2022-10-28T15:50:37;21.10;99.90
19898;DHT22;10111;50.814;4.572;2022-10-28T15:55:35;21.00;99.90
19898;DHT22;10111;50.814;4.572;2022-10-28T16:00:52;20.90;99.90
19898;DHT22;10111;50.814;4.572;2022-10-28T16:03:40;20.80;99.90
19898;DHT22;10111;50.814;4.572;2022-10-28T16:06:20;20.80;99.90
19898;DHT22;10111;50.814;4.572;2022-10-28T16:08:46;20.70;99.90
19898;DHT22;10111;50.814;4.572;2022-10-28T16:11:17;20.60;99.90
19898;DHT22;10111;50.814;4.572;2022-10-28T16:13:48;20.60;99.90
19898;DHT22;10111;50.814;4.572;2022-10-28T16:16:23;20.60;99.90
19898;DHT22;10111;50.814;4.572;2022-10-28T16:19:00;20.60;99.90
19898;DHT22;10111;50.814;4.572;2022-10-28T16:21:27;20.50;99.90
19898;DHT22;10111;50.814;4.572;2022-10-28T16:23:54;20.40;99.90
19898;DHT22;10111;50.814;4.572;2022-10-28T16:26:26;20.40;99.90
19898;DHT22;10111;50.814;4.572;2022-10-28T16:28:52;20.30;99.90
19898;DHT22;10111;50.814;4.572;2022-10-28T16:31:20;20.20;99.90
19898;DHT22;10111;50.814;4.572;2022-10-28T16:33:46;20.20;99.90
19898;DHT22;10111;50.814;4.572;2022-10-28T16:36:12;20.10;99.90
19898;DHT22;10111;50.814;4.572;2022-10-28T16:38:37;20.00;99.90
19898;DHT22;10111;50.814;4.572;2022-10-28T16:41:04;20.00;99.90
19898;DHT22;10111;50.814;4.572;2022-10-28T16:43:31;19.90;99.90
19898;DHT22;10111;50.814;4.572;2022-10-28T16:45:58;19.80;99.90
19898;DHT22;10111;50.814;4.572;2022-10-28T16:48:27;19.70;99.90
19898;DHT22;10111;50.814;4.572;2022-10-28T16:50:55;19.60;99.90
19898;DHT22;10111;50.814;4.572;2022-10-28T16:53:21;19.60;99.90
19898;DHT22;10111;50.814;4.572;2022-10-28T16:55:47;19.50;99.90
19898;DHT22;10111;50.814;4.572;2022-10-28T16:58:13;19.40;99.90
19898;DHT22;10111;50.814;4.572;2022-10-28T17:00:40;19.40;99.90
19898;DHT22;10111;50.814;4.572;2022-10-28T17:03:06;19.30;99.90
19898;DHT22;10111;50.814;4.572;2022-10-28T17:05:35;19.20;99.90
19898;DHT22;10111;50.814;4.572;2022-10-28T17:08:00;19.10;99.90
19898;DHT22;10111;50.814;4.572;2022-10-28T17:10:26;19.00;99.90
19898;DHT22;10111;50.814;4.572;2022-10-28T17:12:53;18.90;99.90
19898;DHT22;10111;50.814;4.572;2022-10-28T17:15:19;18.80;99.90
19898;DHT22;10111;50.814;4.572;2022-10-28T17:17:48;18.80;99.90
19898;DHT22;10111;50.814;4.572;2022-10-28T17:20:13;18.70;99.90
19898;DHT22;10111;50.814;4.572;2022-10-28T17:22:39;18.70;99.90
19898;DHT22;10111;50.814;4.572;2022-10-28T17:25:06;18.60;99.90
19898;DHT22;10111;50.814;4.572;2022-10-28T17:27:32;18.60;99.90
19898;DHT22;10111;50.814;4.572;2022-10-28T17:29:57;18.50;99.90
19898;DHT22;10111;50.814;4.572;2022-10-28T17:32:23;18.40;99.90
19898;DHT22;10111;50.814;4.572;2022-10-28T17:34:49;18.40;99.90
19898;DHT22;10111;50.814;4.572;2022-10-28T17:37:14;18.30;99.90
19898;DHT22;10111;50.814;4.572;2022-10-28T17:39:40;18.20;99.90
19898;DHT22;10111;50.814;4.572;2022-10-28T17:42:07;18.20;99.90
19898;DHT22;10111;50.814;4.572;2022-10-28T17:44:32;18.20;99.90
19898;DHT22;10111;50.814;4.572;2022-10-28T17:46:58;18.10;99.90
19898;DHT22;10111;50.814;4.572;2022-10-28T17:49:24;18.00;99.90
19898;DHT22;10111;50.814;4.572;2022-10-28T17:51:50;18.00;99.90
19898;DHT22;10111;50.814;4.572;2022-10-28T17:54:16;17.90;99.90
19898;DHT22;10111;50.814;4.572;2022-10-28T17:56:41;17.80;99.90
19898;DHT22;10111;50.814;4.572;2022-10-28T17:59:07;17.70;99.90
19898;DHT22;10111;50.814;4.572;2022-10-28T18:01:34;17.70;99.90
19898;DHT22;10111;50.814;4.572;2022-10-28T18:04:00;17.60;99.90
19898;DHT22;10111;50.814;4.572;2022-10-28T18:06:27;17.60;99.90
19898;DHT22;10111;50.814;4.572;2022-10-28T18:08:53;17.60;99.90
19898;DHT22;10111;50.814;4.572;2022-10-28T18:11:19;17.60;99.90
19898;DHT22;10111;50.814;4.572;2022-10-28T18:13:46;17.60;99.90
19898;DHT22;10111;50.814;4.572;2022-10-28T18:16:17;17.50;99.90
19898;DHT22;10111;50.814;4.572;2022-10-28T18:18:43;17.50;99.90
19898;DHT22;10111;50.814;4.572;2022-10-28T18:21:10;17.50;99.90
19898;DHT22;10111;50.814;4.572;2022-10-28T18:23:35;17.40;99.90
19898;DHT22;10111;50.814;4.572;2022-10-28T18:26:12;17.30;99.90
19898;DHT22;10111;50.814;4.572;2022-10-28T18:28:40;17.30;99.90
19898;DHT22;10111;50.814;4.572;2022-10-28T18:31:14;17.20;99.90
19898;DHT22;10111;50.814;4.572;2022-10-28T18:33:41;17.20;99.90
19898;DHT22;10111;50.814;4.572;2022-10-28T18:36:16;17.20;99.90
19898;DHT22;10111;50.814;4.572;2022-10-28T18:38:42;17.10;99.90
19898;DHT22;10111;50.814;4.572;2022-10-28T18:41:12;17.00;99.90
19898;DHT22;10111;50.814;4.572;2022-10-28T18:43:38;17.00;99.90
19898;DHT22;10111;50.814;4.572;2022-10-28T18:46:04;16.90;99.90
19898;DHT22;10111;50.814;4.572;2022-10-28T18:48:30;16.90;99.90
19898;DHT22;10111;50.814;4.572;2022-10-28T18:50:57;16.80;99.90
19898;DHT22;10111;50.814;4.572;2022-10-28T18:53:24;16.80;99.90
19898;DHT22;10111;50.814;4.572;2022-10-28T18:55:50;16.80;99.90